Time;durP1;ratioP1;P1;durP2;ratioP2;P2;SDS_P1;SDS_P2;PMS_P1;PMS_P2;Temp;Humidity;BMP_temperature;BMP_pressure;BME280_temperature;BME280_humidity;BME280_pressure;Samples;Min_cycle;Max_cycle;Signal;HPM_P1;HPM_P2
2021/10/05 00:00:16;;;;;;;14.38;8.38;;;;;;;;;;5034003;28;20097;-63
2021/10/05 00:02:43;;;;;;;15.70;8.65;;;;;;;;;;5033871;28;20049;-62
2021/10/05 00:05:10;;;;;;;14.90;9.30;;;;;;;;;;5033781;28;20056;-63
2021/10/05 00:07:38;;;;;;;15.25;8.50;;;;;;;;;;5033795;28;20049;-61
2021/10/05 00:10:07;;;;;;;16.30;8.73;;;;;;;;;;5033636;28;20488;-61
2021/10/05 00:12:35;;;;;;;14.32;9.02;;;;;;;;;;5033600;28;20128;-63
2021/10/05 00:15:02;;;;;;;14.07;8.30;;;;;;;;;;5033518;28;20046;-63
2021/10/05 00:17:29;;;;;;;13.77;8.88;;;;;;;;;;5033448;28;20049;-62
2021/10/05 00:19:56;;;;;;;16.50;9.80;;;;;;;;;;5033449;28;20049;-61
2021/10/05 00:22:23;;;;;;;17.42;9.77;;;;;;;;;;5033414;28;20041;-60
2021/10/05 00:24:50;;;;;;;15.38;9.65;;;;;;;;;;5033414;28;20041;-60
2021/10/05 00:27:17;;;;;;;14.27;8.73;;;;;;;;;;5033566;28;20518;-60
2021/10/05 00:29:46;;;;;;;16.13;9.50;;;;;;;;;;5033298;28;20132;-60
2021/10/05 00:32:13;;;;;;;14.57;8.65;;;;;;;;;;5033330;28;20045;-60
2021/10/05 00:34:40;;;;;;;13.32;8.40;;;;;;;;;;5033129;28;20041;-61
2021/10/05 00:37:07;;;;;;;14.30;8.68;;;;;;;;;;5033015;28;20151;-61
2021/10/05 00:39:34;;;;;;;16.70;10.07;;;;;;;;;;5033306;28;20383;-62
2021/10/05 00:42:03;;;;;;;14.55;8.82;;;;;;;;;;5032539;28;20052;-60
2021/10/05 00:44:31;;;;;;;17.38;8.68;;;;;;;;;;5032747;28;20095;-62
2021/10/05 00:47:04;;;;;;;14.52;9.15;;;;;;;;;;5032969;28;20053;-62
2021/10/05 00:49:31;;;;;;;14.95;9.43;;;;;;;;;;5032708;28;20383;-61
2021/10/05 00:51:59;;;;;;;15.93;8.82;;;;;;;;;;5032846;28;20046;-63
2021/10/05 00:54:26;;;;;;;18.65;10.70;;;;;;;;;;5032696;28;20050;-62
2021/10/05 00:56:53;;;;;;;14.50;8.77;;;;;;;;;;5017236;28;20060;-62
2021/10/05 00:59:21;;;;;;;15.75;9.18;;;;;;;;;;5012899;28;20088;-61
2021/10/05 01:01:48;;;;;;;16.67;9.35;;;;;;;;;;5012834;28;20041;-63
2021/10/05 01:04:16;;;;;;;19.60;10.05;;;;;;;;;;5012637;28;20133;-61
2021/10/05 01:06:47;;;;;;;16.95;9.40;;;;;;;;;;5012911;28;20046;-62
2021/10/05 01:09:15;;;;;;;18.08;9.85;;;;;;;;;;5012818;28;20046;-62
2021/10/05 01:11:42;;;;;;;17.08;9.82;;;;;;;;;;5012758;28;20057;-61
2021/10/05 01:14:09;;;;;;;17.83;10.20;;;;;;;;;;5012509;28;20058;-63
2021/10/05 01:16:37;;;;;;;17.10;9.85;;;;;;;;;;5012624;28;20056;-62
2021/10/05 01:19:04;;;;;;;19.15;9.50;;;;;;;;;;5012631;28;20042;-62
2021/10/05 01:21:33;;;;;;;19.98;10.77;;;;;;;;;;5012497;28;20045;-60
2021/10/05 01:24:06;;;;;;;15.93;9.85;;;;;;;;;;5012377;28;20050;-62
2021/10/05 01:26:33;;;;;;;20.60;10.80;;;;;;;;;;5012659;28;20116;-60
2021/10/05 01:29:02;;;;;;;16.10;9.23;;;;;;;;;;5012456;28;20043;-62
2021/10/05 01:31:31;;;;;;;18.23;10.75;;;;;;;;;;5012479;28;20704;-60
2021/10/05 01:33:59;;;;;;;18.30;10.18;;;;;;;;;;5012243;28;20046;-62
2021/10/05 01:36:26;;;;;;;24.48;12.45;;;;;;;;;;5012517;28;20050;-59
2021/10/05 01:38:55;;;;;;;18.35;10.38;;;;;;;;;;5012153;28;20053;-63
2021/10/05 01:41:22;;;;;;;20.58;10.77;;;;;;;;;;5012151;28;20046;-63
2021/10/05 01:43:50;;;;;;;19.70;11.48;;;;;;;;;;5012411;28;20053;-61
2021/10/05 01:46:17;;;;;;;23.55;12.45;;;;;;;;;;5012212;28;20048;-61
2021/10/05 01:48:45;;;;;;;22.17;13.25;;;;;;;;;;5011971;28;20141;-63
2021/10/05 01:51:13;;;;;;;22.35;12.38;;;;;;;;;;5012025;28;20053;-63
2021/10/05 01:53:40;;;;;;;19.77;12.23;;;;;;;;;;5011613;28;20068;-60
2021/10/05 01:56:10;;;;;;;22.20;11.85;;;;;;;;;;5020999;28;20045;-63
2021/10/05 01:58:37;;;;;;;26.45;13.93;;;;;;;;;;5031517;28;20045;-63
2021/10/05 02:01:04;;;;;;;24.15;13.40;;;;;;;;;;5031530;28;20483;-61
2021/10/05 02:03:31;;;;;;;19.40;12.27;;;;;;;;;;5031306;28;20041;-64
2021/10/05 02:05:58;;;;;;;23.27;12.70;;;;;;;;;;5031578;28;20061;-61
2021/10/05 02:08:25;;;;;;;28.40;14.50;;;;;;;;;;5031477;28;20048;-63
2021/10/05 02:10:52;;;;;;;21.70;12.23;;;;;;;;;;5031348;28;20050;-61
2021/10/05 02:13:20;;;;;;;23.70;13.73;;;;;;;;;;5031239;28;20049;-63
2021/10/05 02:15:47;;;;;;;25.63;14.75;;;;;;;;;;5031413;28;20057;-63
2021/10/05 02:18:14;;;;;;;22.98;13.40;;;;;;;;;;5031293;28;20128;-60
2021/10/05 02:20:41;;;;;;;27.38;13.93;;;;;;;;;;5031219;28;20495;-62
2021/10/05 02:23:08;;;;;;;22.58;12.40;;;;;;;;;;5031156;28;20052;-62
2021/10/05 02:25:35;;;;;;;23.13;12.93;;;;;;;;;;5031288;28;20128;-61
2021/10/05 02:28:04;;;;;;;26.17;13.52;;;;;;;;;;5031260;28;20046;-63
2021/10/05 02:30:32;;;;;;;23.27;12.82;;;;;;;;;;5031147;28;20087;-61
2021/10/05 02:32:59;;;;;;;20.50;12.75;;;;;;;;;;5031300;28;20056;-63
2021/10/05 02:35:27;;;;;;;24.35;12.45;;;;;;;;;;5031156;28;20049;-63
2021/10/05 02:37:54;;;;;;;23.30;12.70;;;;;;;;;;5031235;28;20049;-63
2021/10/05 02:40:21;;;;;;;24.02;12.35;;;;;;;;;;5030990;28;20049;-61
2021/10/05 02:42:48;;;;;;;23.83;12.43;;;;;;;;;;5031164;28;20049;-64
2021/10/05 02:45:15;;;;;;;24.70;13.40;;;;;;;;;;5030998;28;20050;-63
2021/10/05 02:47:43;;;;;;;23.65;13.75;;;;;;;;;;5031311;28;20045;-61
2021/10/05 02:50:10;;;;;;;24.65;13.88;;;;;;;;;;5030928;28;20521;-63
2021/10/05 02:52:37;;;;;;;24.02;12.80;;;;;;;;;;5030960;28;20507;-63
2021/10/05 02:55:05;;;;;;;26.83;14.95;;;;;;;;;;5030203;28;20045;-62
2021/10/05 02:57:32;;;;;;;28.55;14.65;;;;;;;;;;5011242;28;20128;-60
2021/10/05 02:59:59;;;;;;;25.90;14.57;;;;;;;;;;5011159;28;20042;-63
2021/10/05 03:02:25;;;;;;;25.10;14.25;;;;;;;;;;5011296;28;20411;-62
2021/10/05 03:04:54;;;;;;;27.65;14.52;;;;;;;;;;5011022;28;20057;-61
2021/10/05 03:07:21;;;;;;;27.75;13.27;;;;;;;;;;5014441;28;20045;-62
2021/10/05 03:09:48;;;;;;;24.58;13.43;;;;;;;;;;5014749;28;20046;-59
2021/10/05 03:12:15;;;;;;;27.90;14.13;;;;;;;;;;5014912;28;20050;-61
2021/10/05 03:14:41;;;;;;;27.20;14.13;;;;;;;;;;5014698;28;20046;-61
2021/10/05 03:17:08;;;;;;;25.85;14.07;;;;;;;;;;5014806;28;20052;-61
2021/10/05 03:19:35;;;;;;;26.20;13.70;;;;;;;;;;5014398;28;20042;-60
2021/10/05 03:22:04;;;;;;;31.13;15.73;;;;;;;;;;5014688;28;20486;-60
2021/10/05 03:24:31;;;;;;;31.58;15.27;;;;;;;;;;5014550;28;20548;-61
2021/10/05 03:26:58;;;;;;;31.55;14.85;;;;;;;;;;5014674;28;20076;-61
2021/10/05 03:29:25;;;;;;;29.77;13.88;;;;;;;;;;5014518;28;20045;-61
2021/10/05 03:31:52;;;;;;;26.65;13.35;;;;;;;;;;5014460;28;20237;-61
2021/10/05 03:34:19;;;;;;;26.95;13.25;;;;;;;;;;5014163;28;20521;-60
2021/10/05 03:36:46;;;;;;;29.35;14.52;;;;;;;;;;5014399;28;20046;-60
2021/10/05 03:39:14;;;;;;;24.42;13.20;;;;;;;;;;5014420;28;20049;-63
2021/10/05 03:41:41;;;;;;;26.45;12.88;;;;;;;;;;5014272;28;20100;-63
2021/10/05 03:44:08;;;;;;;25.08;12.52;;;;;;;;;;5013898;28;20157;-63
2021/10/05 03:46:35;;;;;;;24.23;12.27;;;;;;;;;;5014277;28;20052;-63
2021/10/05 03:49:02;;;;;;;26.60;13.45;;;;;;;;;;5014071;28;20042;-62
2021/10/05 03:51:29;;;;;;;24.85;12.77;;;;;;;;;;5014134;28;20066;-61
2021/10/05 03:53:57;;;;;;;27.58;14.77;;;;;;;;;;5013719;28;20128;-64
2021/10/05 03:56:25;;;;;;;23.50;11.73;;;;;;;;;;5025739;28;20541;-63
2021/10/05 03:58:52;;;;;;;21.98;11.65;;;;;;;;;;5033808;28;20045;-63
2021/10/05 04:01:19;;;;;;;25.35;12.48;;;;;;;;;;5033440;28;20054;-61
2021/10/05 04:03:46;;;;;;;24.17;13.52;;;;;;;;;;5033513;28;20056;-61
2021/10/05 04:06:13;;;;;;;24.38;12.07;;;;;;;;;;5033985;28;20057;-60
2021/10/05 04:08:40;;;;;;;26.67;13.20;;;;;;;;;;5033825;28;20405;-60
2021/10/05 04:11:08;;;;;;;31.00;13.27;;;;;;;;;;5033420;28;20077;-63
2021/10/05 04:13:37;;;;;;;26.02;13.18;;;;;;;;;;5033647;28;20132;-60
2021/10/05 04:16:04;;;;;;;25.20;12.52;;;;;;;;;;5033894;28;20399;-63
2021/10/05 04:18:31;;;;;;;27.55;13.20;;;;;;;;;;5032303;28;20050;-63
2021/10/05 04:20:58;;;;;;;30.30;14.60;;;;;;;;;;5033441;28;20045;-63
2021/10/05 04:23:25;;;;;;;30.65;13.95;;;;;;;;;;5033264;28;20049;-62
2021/10/05 04:25:52;;;;;;;32.25;14.93;;;;;;;;;;5033334;28;20056;-62
2021/10/05 04:28:19;;;;;;;35.35;16.75;;;;;;;;;;5033223;28;20048;-61
2021/10/05 04:30:47;;;;;;;34.40;15.65;;;;;;;;;;5033281;28;20410;-62
2021/10/05 04:33:14;;;;;;;35.15;16.08;;;;;;;;;;5033133;28;20046;-61
2021/10/05 04:35:41;;;;;;;35.60;17.48;;;;;;;;;;5033155;28;20049;-62
2021/10/05 04:38:08;;;;;;;33.15;13.95;;;;;;;;;;5033074;28;20045;-62
2021/10/05 04:40:35;;;;;;;31.77;15.82;;;;;;;;;;5032956;28;20120;-61
2021/10/05 04:43:02;;;;;;;31.30;14.35;;;;;;;;;;5032811;28;20396;-61
2021/10/05 04:45:29;;;;;;;34.67;15.52;;;;;;;;;;5032762;28;20060;-63
2021/10/05 04:47:58;;;;;;;33.97;16.13;;;;;;;;;;5032956;28;20463;-64
2021/10/05 04:50:25;;;;;;;34.22;14.90;;;;;;;;;;5032639;28;20052;-61
2021/10/05 04:52:52;;;;;;;33.13;13.90;;;;;;;;;;5032803;28;20053;-64
2021/10/05 04:55:18;;;;;;;35.53;14.30;;;;;;;;;;5029924;28;20409;-62
2021/10/05 04:57:45;;;;;;;37.70;15.23;;;;;;;;;;5013108;28;20419;-60
2021/10/05 05:00:13;;;;;;;34.55;16.23;;;;;;;;;;5012784;28;20403;-61
2021/10/05 05:02:40;;;;;;;41.97;18.13;;;;;;;;;;5012724;28;20411;-63
2021/10/05 05:05:09;;;;;;;35.50;16.40;;;;;;;;;;5012554;28;20133;-63
2021/10/05 05:07:36;;;;;;;34.08;15.75;;;;;;;;;;5012844;28;20081;-63
2021/10/05 05:10:06;;;;;;;36.50;16.58;;;;;;;;;;5012543;28;20046;-63
2021/10/05 05:12:34;;;;;;;36.72;15.90;;;;;;;;;;5013203;28;20084;-64
2021/10/05 05:15:01;;;;;;;37.55;15.60;;;;;;;;;;5012385;28;20441;-62
2021/10/05 05:17:28;;;;;;;39.22;17.00;;;;;;;;;;5012708;28;20582;-63
2021/10/05 05:19:54;;;;;;;36.42;16.77;;;;;;;;;;5012466;28;20048;-63
2021/10/05 05:22:23;;;;;;;37.70;15.98;;;;;;;;;;5012685;28;20056;-64
2021/10/05 05:24:50;;;;;;;35.40;15.55;;;;;;;;;;5012374;28;20053;-58
2021/10/05 05:27:17;;;;;;;38.13;15.10;;;;;;;;;;5012694;28;20046;-60
2021/10/05 05:29:44;;;;;;;32.83;15.65;;;;;;;;;;5012055;28;20054;-63
2021/10/05 05:32:12;;;;;;;34.47;15.73;;;;;;;;;;5012327;28;20049;-62
2021/10/05 05:34:39;;;;;;;36.50;15.65;;;;;;;;;;5012166;28;20056;-62
2021/10/05 05:37:07;;;;;;;34.45;15.05;;;;;;;;;;5012114;28;20050;-62
2021/10/05 05:39:39;;;;;;;33.65;14.07;;;;;;;;;;5013272;23;20050;-61
2021/10/05 05:42:07;;;;;;;31.40;14.27;;;;;;;;;;4993030;28;20057;-62
2021/10/05 05:44:34;;;;;;;31.25;14.27;;;;;;;;;;4992957;28;20047;-61
2021/10/05 05:47:01;;;;;;;29.13;14.35;;;;;;;;;;4993085;28;20046;-60
2021/10/05 05:49:28;;;;;;;31.00;13.50;;;;;;;;;;4993059;28;20061;-61
2021/10/05 05:51:55;;;;;;;32.40;14.80;;;;;;;;;;4992857;28;20043;-61
2021/10/05 05:54:22;;;;;;;29.88;13.27;;;;;;;;;;4992787;28;20129;-61
2021/10/05 05:56:51;;;;;;;33.22;15.50;;;;;;;;;;4992629;28;20046;-59
2021/10/05 05:59:18;;;;;;;31.23;14.23;;;;;;;;;;4992888;28;20046;-59
2021/10/05 06:01:45;;;;;;;31.95;13.90;;;;;;;;;;4992714;28;20050;-60
2021/10/05 06:04:12;;;;;;;34.53;14.88;;;;;;;;;;4992563;28;20054;-60
2021/10/05 06:06:39;;;;;;;31.75;13.30;;;;;;;;;;4992620;28;20160;-58
2021/10/05 06:09:06;;;;;;;27.33;13.00;;;;;;;;;;4992492;28;20054;-60
2021/10/05 06:11:36;;;;;;;30.67;14.10;;;;;;;;;;4992500;28;20061;-61
2021/10/05 06:14:04;;;;;;;29.05;11.65;;;;;;;;;;4992708;28;20062;-60
2021/10/05 06:16:31;;;;;;;31.73;12.48;;;;;;;;;;4992711;28;20133;-61
2021/10/05 06:18:58;;;;;;;31.27;13.88;;;;;;;;;;4992538;28;20054;-59
2021/10/05 06:21:25;;;;;;;29.95;12.35;;;;;;;;;;4992382;28;20046;-59
2021/10/05 06:23:52;;;;;;;30.70;12.70;;;;;;;;;;4992632;28;20056;-62
2021/10/05 06:26:19;;;;;;;28.15;13.40;;;;;;;;;;4992533;28;20488;-60
2021/10/05 06:28:46;;;;;;;34.78;12.75;;;;;;;;;;4992657;28;20054;-60
2021/10/05 06:31:15;;;;;;;32.50;13.73;;;;;;;;;;4992187;28;20054;-60
2021/10/05 06:33:42;;;;;;;33.45;14.45;;;;;;;;;;4992353;28;20050;-58
2021/10/05 06:36:09;;;;;;;27.33;12.65;;;;;;;;;;4992616;28;20513;-59
2021/10/05 06:38:36;;;;;;;27.77;12.00;;;;;;;;;;4992391;28;20081;-59
2021/10/05 06:41:03;;;;;;;30.15;12.80;;;;;;;;;;4993531;28;20250;-59
2021/10/05 06:43:30;;;;;;;28.23;10.73;;;;;;;;;;4996276;28;20061;-59
2021/10/05 06:45:58;;;;;;;29.92;12.77;;;;;;;;;;4996340;28;20050;-59
2021/10/05 06:48:26;;;;;;;23.42;10.30;;;;;;;;;;4996690;28;20082;-60
2021/10/05 06:50:53;;;;;;;26.48;10.65;;;;;;;;;;4995894;28;20050;-60
2021/10/05 06:53:20;;;;;;;24.27;10.05;;;;;;;;;;4996352;28;20415;-61
2021/10/05 06:55:47;;;;;;;29.60;11.52;;;;;;;;;;4989825;28;20046;-61
2021/10/05 06:58:15;;;;;;;27.70;10.70;;;;;;;;;;4976767;28;20057;-61
2021/10/05 07:00:42;;;;;;;27.13;10.77;;;;;;;;;;4976779;28;20058;-62
2021/10/05 07:03:10;;;;;;;35.38;14.82;;;;;;;;;;4976643;28;20142;-62
2021/10/05 07:05:38;;;;;;;23.95;9.95;;;;;;;;;;4976775;28;20053;-59
2021/10/05 07:08:06;;;;;;;25.45;10.02;;;;;;;;;;4976610;28;20500;-61
2021/10/05 07:10:35;;;;;;;22.98;9.07;;;;;;;;;;4987704;28;20503;-61
2021/10/05 07:13:02;;;;;;;22.25;9.52;;;;;;;;;;4993762;28;20915;-61
2021/10/05 07:15:29;;;;;;;22.45;9.43;;;;;;;;;;4993028;28;20050;-61
2021/10/05 07:17:57;;;;;;;24.77;10.05;;;;;;;;;;4986715;28;20042;-60
2021/10/05 07:20:25;;;;;;;21.35;9.25;;;;;;;;;;4984857;28;20049;-60
2021/10/05 07:22:53;;;;;;;24.73;10.52;;;;;;;;;;4979661;28;20047;-61
2021/10/05 07:25:20;;;;;;;22.75;9.57;;;;;;;;;;4973822;28;20153;-59
2021/10/05 07:27:51;;;;;;;22.98;9.40;;;;;;;;;;4974063;28;20144;-61
2021/10/05 07:30:22;;;;;;;;;;;;;;;;;;4974835;28;20109;-61
2021/10/05 07:32:50;;;;;;;19.10;7.93;;;;;;;;;;4974373;28;19928;-62
2021/10/05 07:35:17;;;;;;;21.02;8.60;;;;;;;;;;4973979;28;20105;-62
2021/10/05 07:37:44;;;;;;;20.13;8.63;;;;;;;;;;4974424;28;20086;-61
2021/10/05 07:40:15;;;;;;;15.85;7.75;;;;;;;;;;4974128;28;20051;-59
2021/10/05 07:42:43;;;;;;;16.92;7.78;;;;;;;;;;4973775;28;20136;-59
2021/10/05 07:45:11;;;;;;;17.40;8.00;;;;;;;;;;4974039;28;20385;-62
2021/10/05 07:47:38;;;;;;;20.10;8.63;;;;;;;;;;4973930;28;20046;-62
2021/10/05 07:50:06;;;;;;;15.10;7.43;;;;;;;;;;4973621;28;20058;-61
2021/10/05 07:52:33;;;;;;;17.08;7.88;;;;;;;;;;4973082;28;20421;-61
2021/10/05 07:55:00;;;;;;;16.00;7.68;;;;;;;;;;4974581;28;20050;-60
2021/10/05 07:57:28;;;;;;;16.17;7.38;;;;;;;;;;4974038;28;20346;-61
2021/10/05 07:59:55;;;;;;;15.07;6.75;;;;;;;;;;4973597;28;20050;-61
2021/10/05 08:02:23;;;;;;;15.45;7.25;;;;;;;;;;4973291;28;20061;-61
2021/10/05 08:04:50;;;;;;;17.08;8.52;;;;;;;;;;4973913;28;20046;-61
2021/10/05 08:07:17;;;;;;;16.75;6.85;;;;;;;;;;4973543;28;20055;-60
2021/10/05 08:09:44;;;;;;;16.02;6.70;;;;;;;;;;4973456;28;20126;-61
2021/10/05 08:12:11;;;;;;;17.20;7.00;;;;;;;;;;4973491;28;20047;-60
2021/10/05 08:14:39;;;;;;;14.50;7.20;;;;;;;;;;4973338;28;20057;-63
2021/10/05 08:17:07;;;;;;;18.60;8.80;;;;;;;;;;4973241;28;20054;-62
2021/10/05 08:19:34;;;;;;;21.65;11.93;;;;;;;;;;4973607;28;20508;-61
2021/10/05 08:22:00;;;;;;;16.05;6.95;;;;;;;;;;4973222;28;20051;-60
2021/10/05 08:24:27;;;;;;;15.45;6.20;;;;;;;;;;4973371;28;20047;-60
2021/10/05 08:26:54;;;;;;;15.98;7.07;;;;;;;;;;4973425;28;20065;-60
2021/10/05 08:29:22;;;;;;;15.88;7.20;;;;;;;;;;4973177;28;20046;-60
2021/10/05 08:31:51;;;;;;;14.13;5.95;;;;;;;;;;4973059;28;20051;-60
2021/10/05 08:34:19;;;;;;;13.13;6.05;;;;;;;;;;4972611;28;20054;-61
2021/10/05 08:36:47;;;;;;;13.02;5.65;;;;;;;;;;4973016;28;20057;-61
2021/10/05 08:39:14;;;;;;;16.38;6.45;;;;;;;;;;4973244;28;20518;-61
2021/10/05 08:41:45;;;;;;;14.07;6.55;;;;;;;;;;4973061;28;20093;-62
2021/10/05 08:44:13;;;;;;;14.25;6.95;;;;;;;;;;4972521;28;20086;-60
2021/10/05 08:46:40;;;;;;;13.50;6.25;;;;;;;;;;4973095;28;20043;-60
2021/10/05 08:49:10;;;;;;;15.40;6.55;;;;;;;;;;4978443;28;20043;-61
2021/10/05 08:51:38;;;;;;;14.73;7.53;;;;;;;;;;4976433;28;20129;-62
2021/10/05 08:54:05;;;;;;;15.52;7.18;;;;;;;;;;4972417;28;20639;-61
2021/10/05 08:56:32;;;;;;;19.48;8.10;;;;;;;;;;4984074;28;20046;-61
2021/10/05 08:58:59;;;;;;;21.15;10.18;;;;;;;;;;4991914;28;20054;-61
2021/10/05 09:01:33;;;;;;;15.38;8.10;;;;;;;;;;4992242;28;20054;-61
2021/10/05 09:04:00;;;;;;;16.52;6.88;;;;;;;;;;4991010;28;20038;-61
2021/10/05 09:06:29;;;;;;;15.60;7.65;;;;;;;;;;4992209;28;20050;-61
2021/10/05 09:08:56;;;;;;;16.80;8.20;;;;;;;;;;4992150;28;20057;-62
2021/10/05 09:11:25;;;;;;;17.80;7.75;;;;;;;;;;4991779;28;20056;-61
2021/10/05 09:13:54;;;;;;;17.10;7.65;;;;;;;;;;4991353;28;20467;-60
2021/10/05 09:16:24;;;;;;;16.98;7.53;;;;;;;;;;4991826;28;20484;-60
2021/10/05 09:18:56;;;;;;;15.20;7.13;;;;;;;;;;4991749;28;20046;-61
2021/10/05 09:21:24;;;;;;;15.55;7.82;;;;;;;;;;4991924;28;20057;-61
2021/10/05 09:23:58;;;;;;;15.38;8.10;;;;;;;;;;4991261;28;20177;-60
2021/10/05 09:26:54;;;;;;;15.85;7.78;;;;;;;;;;4991734;28;20058;-60
2021/10/05 09:29:23;;;;;;;15.35;6.50;;;;;;;;;;4958035;28;20050;-59
2021/10/05 09:31:56;;;;;;;19.60;10.45;;;;;;;;;;4992142;28;20061;-60
2021/10/05 09:34:37;;;;;;;18.88;10.57;;;;;;;;;;4991240;28;20113;-61
2021/10/05 09:37:09;;;;;;;15.70;7.60;;;;;;;;;;4991710;28;20058;-61
2021/10/05 09:39:44;;;;;;;13.98;6.65;;;;;;;;;;4991335;28;20076;-61
2021/10/05 09:42:13;;;;;;;14.23;6.88;;;;;;;;;;4992016;28;20141;-61
2021/10/05 09:44:40;;;;;;;14.82;6.75;;;;;;;;;;4991659;28;20474;-61
2021/10/05 09:47:07;;;;;;;14.63;7.10;;;;;;;;;;4991458;28;20046;-60
2021/10/05 09:49:44;;;;;;;14.70;7.75;;;;;;;;;;4991331;28;20418;-61
2021/10/05 09:52:12;;;;;;;14.48;7.22;;;;;;;;;;4991932;28;20133;-61
2021/10/05 09:54:44;;;;;;;14.77;7.00;;;;;;;;;;4991233;28;20050;-59
2021/10/05 09:57:11;;;;;;;13.50;6.75;;;;;;;;;;4991702;28;20434;-61
2021/10/05 09:59:38;;;;;;;15.65;8.13;;;;;;;;;;4991102;28;20046;-61
2021/10/05 10:02:06;;;;;;;15.68;7.28;;;;;;;;;;4991264;28;20069;-61
2021/10/05 10:04:34;;;;;;;14.63;7.32;;;;;;;;;;4990696;28;20062;-61
2021/10/05 10:07:02;;;;;;;13.98;7.63;;;;;;;;;;4991169;28;20046;-61
2021/10/05 10:09:30;;;;;;;15.30;7.95;;;;;;;;;;4990931;28;20050;-60
2021/10/05 10:12:02;;;;;;;11.95;6.28;;;;;;;;;;4991183;28;20440;-62
2021/10/05 10:14:29;;;;;;;12.43;6.43;;;;;;;;;;4990508;28;20058;-61
2021/10/05 10:16:56;;;;;;;11.13;5.82;;;;;;;;;;4990992;28;20056;-62
2021/10/05 10:19:29;;;;;;;10.35;6.03;;;;;;;;;;4990939;28;20054;-61
2021/10/05 10:22:07;;;;;;;11.27;5.90;;;;;;;;;;4991155;28;20404;-60
2021/10/05 10:24:47;;;;;;;11.45;5.68;;;;;;;;;;4990200;28;20066;-61
2021/10/05 10:27:16;;;;;;;;;;;;;;;;;;4991505;28;20492;-62
2021/10/05 10:29:43;;;;;;;10.25;4.95;;;;;;;;;;4990457;28;19922;-61
2021/10/05 10:32:13;;;;;;;11.10;6.07;;;;;;;;;;4991352;28;20554;-60
2021/10/05 10:34:43;;;;;;;13.20;5.82;;;;;;;;;;4976869;28;20137;-64
2021/10/05 10:37:12;;;;;;;12.65;5.93;;;;;;;;;;4990818;28;20408;-66
2021/10/05 10:39:40;;;;;;;44.03;20.73;;;;;;;;;;4991039;28;20055;-62
2021/10/05 10:42:08;;;;;;;60.92;26.85;;;;;;;;;;4990961;28;20050;-60
2021/10/05 10:44:38;;;;;;;21.42;10.77;;;;;;;;;;4989265;28;20059;-61
2021/10/05 10:47:09;;;;;;;20.15;10.15;;;;;;;;;;4990800;28;20086;-60
2021/10/05 10:49:36;;;;;;;18.02;9.25;;;;;;;;;;4990325;28;20047;-61
2021/10/05 10:52:04;;;;;;;18.10;9.23;;;;;;;;;;4990500;28;20512;-60
2021/10/05 10:54:31;;;;;;;16.10;8.65;;;;;;;;;;4990319;28;20058;-60
2021/10/05 10:57:00;;;;;;;18.83;10.32;;;;;;;;;;4974380;28;20050;-61
2021/10/05 10:59:28;;;;;;;18.35;9.82;;;;;;;;;;4971114;28;20731;-61
2021/10/05 11:02:01;;;;;;;17.00;9.55;;;;;;;;;;4971073;28;20065;-60
2021/10/05 11:04:28;;;;;;;16.48;9.13;;;;;;;;;;4970903;28;20488;-59
2021/10/05 11:06:57;;;;;;;14.30;8.30;;;;;;;;;;4971041;28;20053;-61
2021/10/05 11:09:29;;;;;;;14.75;7.65;;;;;;;;;;4970995;28;20141;-59
2021/10/05 11:11:58;;;;;;;11.93;7.88;;;;;;;;;;4970916;28;20042;-62
2021/10/05 11:14:31;;;;;;;11.07;6.95;;;;;;;;;;4970561;28;20047;-62
2021/10/05 11:17:01;;;;;;;11.25;6.90;;;;;;;;;;4971102;28;20054;-60
2021/10/05 11:19:30;;;;;;;23.70;12.55;;;;;;;;;;4971440;28;20387;-61
2021/10/05 11:21:58;;;;;;;22.02;10.32;;;;;;;;;;4970758;28;20058;-62
2021/10/05 11:24:36;;;;;;;22.38;11.68;;;;;;;;;;4970248;28;20142;-61
2021/10/05 11:27:09;;;;;;;15.52;8.90;;;;;;;;;;4971651;28;20054;-61
2021/10/05 11:29:37;;;;;;;17.65;10.18;;;;;;;;;;4974059;28;20053;-60
2021/10/05 11:32:08;;;;;;;24.42;8.40;;;;;;;;;;4974603;28;20487;-61
2021/10/05 11:34:37;;;;;;;14.05;8.20;;;;;;;;;;4974268;28;20469;-59
2021/10/05 11:37:06;;;;;;;14.38;7.82;;;;;;;;;;4974059;28;20055;-60
2021/10/05 11:39:34;;;;;;;14.65;7.63;;;;;;;;;;5012844;23;20100;-79
2021/10/05 11:42:09;;;;;;;13.45;8.15;;;;;;;;;;5033950;28;20088;-78
2021/10/05 11:44:41;;;;;;;12.35;7.32;;;;;;;;;;5034565;28;20049;-78
2021/10/05 11:47:12;;;;;;;12.23;7.35;;;;;;;;;;5038627;28;20085;-78
2021/10/05 11:49:41;;;;;;;10.73;6.97;;;;;;;;;;5039699;28;20049;-77
2021/10/05 11:52:12;;;;;;;12.63;7.03;;;;;;;;;;5036500;28;20045;-78
2021/10/05 11:54:38;;;;;;;;;;;;;;;;;;5034704;28;20045;-78
2021/10/05 11:57:10;;;;;;;15.23;8.55;;;;;;;;;;5035832;28;19953;-78
2021/10/05 11:59:37;;;;;;;13.07;7.80;;;;;;;;;;5035198;28;20047;-78
2021/10/05 12:02:06;;;;;;;14.05;8.20;;;;;;;;;;5036647;28;20053;-79
2021/10/05 12:04:35;;;;;;;12.00;8.00;;;;;;;;;;5034717;28;20048;-78
2021/10/05 12:07:05;;;;;;;13.97;7.60;;;;;;;;;;5033751;28;20249;-78
2021/10/05 12:09:34;;;;;;;12.65;7.35;;;;;;;;;;5033642;28;20577;-78
2021/10/05 12:12:07;;;;;;;10.95;7.72;;;;;;;;;;5035387;28;20053;-78
2021/10/05 12:14:37;;;;;;;11.48;7.32;;;;;;;;;;5038505;28;20092;-79
2021/10/05 12:17:06;;;;;;;11.90;7.25;;;;;;;;;;5036491;28;20500;-79
2021/10/05 12:19:37;;;;;;;11.20;6.80;;;;;;;;;;5035032;28;20058;-78
2021/10/05 12:22:06;;;;;;;9.57;5.82;;;;;;;;;;5041216;28;20064;-77
2021/10/05 12:24:44;;;;;;;11.32;6.95;;;;;;;;;;5044244;28;20057;-78
2021/10/05 12:27:21;;;;;;;9.88;6.03;;;;;;;;;;5036830;28;20073;-78
2021/10/05 12:29:51;;;;;;;14.00;7.95;;;;;;;;;;5035949;28;20057;-78
2021/10/05 12:32:18;;;;;;;11.50;7.13;;;;;;;;;;5038425;28;20060;-78
2021/10/05 12:34:51;;;;;;;10.15;6.15;;;;;;;;;;5038878;28;20049;-80
2021/10/05 12:37:19;;;;;;;15.68;9.45;;;;;;;;;;5038451;28;20076;-79
2021/10/05 12:39:59;;;;;;;10.48;6.80;;;;;;;;;;5036716;28;20531;-79
2021/10/05 12:42:41;;;;;;;8.40;5.85;;;;;;;;;;5038819;28;20053;-79
2021/10/05 12:45:13;;;;;;;11.00;6.03;;;;;;;;;;5036977;28;20041;-78
2021/10/05 12:47:54;;;;;;;12.20;5.95;;;;;;;;;;5036841;28;20088;-78
2021/10/05 12:50:22;;;;;;;;;;;;;;;;;;5033157;28;20132;-78
2021/10/05 12:52:53;;;;;;;8.57;5.10;;;;;;;;;;5033304;28;19920;-78
2021/10/05 12:55:21;;;;;;;11.60;7.35;;;;;;;;;;5033848;28;20543;-78
2021/10/05 12:57:49;;;;;;;9.77;5.47;;;;;;;;;;5033652;28;20049;-78
2021/10/05 13:00:18;;;;;;;11.75;6.00;;;;;;;;;;5034692;28;20045;-78
2021/10/05 13:02:46;;;;;;;10.43;6.33;;;;;;;;;;5035294;28;20089;-79
2021/10/05 13:05:14;;;;;;;9.88;5.18;;;;;;;;;;5042222;28;20052;-79
2021/10/05 13:07:43;;;;;;;8.80;5.07;;;;;;;;;;5034372;28;20526;-79
2021/10/05 13:10:11;;;;;;;8.73;5.03;;;;;;;;;;5034883;28;20128;-78
2021/10/05 13:12:38;;;;;;;8.05;4.50;;;;;;;;;;5035373;28;20060;-79
2021/10/05 13:15:05;;;;;;;10.55;5.18;;;;;;;;;;5038330;28;20042;-79
2021/10/05 13:17:32;;;;;;;8.10;5.50;;;;;;;;;;5041562;28;20053;-79
2021/10/05 13:19:59;;;;;;;9.57;5.75;;;;;;;;;;5046173;28;20049;-78
2021/10/05 13:22:26;;;;;;;10.27;5.93;;;;;;;;;;5046162;28;20037;-78
2021/10/05 13:24:55;;;;;;;9.02;5.53;;;;;;;;;;5046990;28;20032;-78
2021/10/05 13:27:22;;;;;;;9.95;5.47;;;;;;;;;;5047265;28;20032;-79
2021/10/05 13:29:49;;;;;;;9.70;5.47;;;;;;;;;;5046921;28;20061;-79
2021/10/05 13:32:16;;;;;;;11.02;5.65;;;;;;;;;;5051280;28;20030;-78
2021/10/05 13:34:43;;;;;;;10.45;5.40;;;;;;;;;;5039016;28;20038;-79
2021/10/05 13:37:10;;;;;;;8.48;4.97;;;;;;;;;;5037821;28;20037;-79
2021/10/05 13:39:37;;;;;;;9.98;5.90;;;;;;;;;;5039400;28;20038;-80
2021/10/05 13:42:06;;;;;;;10.13;5.50;;;;;;;;;;5065410;28;20025;-78
2021/10/05 13:44:33;;;;;;;9.48;5.40;;;;;;;;;;5056871;28;20029;-77
2021/10/05 13:47:00;;;;;;;10.63;5.40;;;;;;;;;;5057215;28;20045;-78
2021/10/05 13:49:27;;;;;;;9.95;5.25;;;;;;;;;;5057141;28;20030;-76
2021/10/05 13:51:54;;;;;;;10.48;5.18;;;;;;;;;;5056906;28;20029;-78
2021/10/05 13:54:21;;;;;;;8.23;4.55;;;;;;;;;;5057430;28;20077;-78
2021/10/05 13:56:48;;;;;;;8.57;4.82;;;;;;;;;;5057484;28;20053;-78
2021/10/05 13:59:16;;;;;;;8.55;4.95;;;;;;;;;;5057057;28;20033;-79
2021/10/05 14:01:43;;;;;;;9.82;4.55;;;;;;;;;;5056061;28;20050;-79
2021/10/05 14:04:10;;;;;;;9.55;4.82;;;;;;;;;;5056184;28;20034;-76
2021/10/05 14:06:38;;;;;;;8.35;4.60;;;;;;;;;;5056516;28;20041;-77
2021/10/05 14:09:05;;;;;;;8.48;5.03;;;;;;;;;;5055583;28;20033;-80
2021/10/05 14:11:32;;;;;;;8.88;4.40;;;;;;;;;;5055810;28;20056;-80
2021/10/05 14:13:59;;;;;;;25.67;13.40;;;;;;;;;;5055531;28;20034;-80
2021/10/05 14:16:27;;;;;;;15.82;7.90;;;;;;;;;;5054933;28;20045;-78
2021/10/05 14:18:54;;;;;;;12.27;7.65;;;;;;;;;;5054350;28;20416;-79
2021/10/05 14:21:22;;;;;;;8.30;4.53;;;;;;;;;;5049824;28;20048;-79
2021/10/05 14:23:49;;;;;;;10.43;5.95;;;;;;;;;;5035558;28;20060;-78
2021/10/05 14:26:18;;;;;;;8.77;4.75;;;;;;;;;;5035641;28;20045;-77
2021/10/05 14:28:45;;;;;;;10.38;4.93;;;;;;;;;;5038653;28;20101;-79
2021/10/05 14:31:13;;;;;;;9.63;4.57;;;;;;;;;;5038106;28;20560;-78